createdAt,value
2022-08-07T00:02:36.093Z,98542.25
2022-08-07T00:04:09.270Z,98539.31
2022-08-07T00:06:47.267Z,98549.31
2022-08-07T00:09:21.241Z,98550.03
2022-08-07T00:11:55.940Z,98539.66
2022-08-07T00:14:29.968Z,98544.25
2022-08-07T00:17:03.227Z,98548.00
2022-08-07T00:20:00.277Z,98553.88
2022-08-07T00:22:34.570Z,98556.94
2022-08-07T00:25:07.375Z,98565.69
2022-08-07T00:27:53.290Z,98569.09
2022-08-07T00:30:28.227Z,98577.50
2022-08-07T00:32:59.375Z,98579.31
2022-08-07T00:35:26.859Z,98583.06
2022-08-07T00:37:56.475Z,98597.16
2022-08-07T00:40:39.502Z,98592.84
2022-08-07T00:43:59.568Z,98598.63
2022-08-07T00:46:00.527Z,98586.25
2022-08-07T00:48:31.829Z,98580.66
2022-08-07T00:51:01.333Z,98571.81
2022-08-07T00:53:39.212Z,98561.94
2022-08-07T00:56:19.549Z,98553.97
2022-08-07T00:58:49.806Z,98538.63
2022-08-07T01:01:18.375Z,98536.22
2022-08-07T01:03:57.127Z,98545.63
2022-08-07T01:06:30.419Z,98564.50
2022-08-07T01:09:00.939Z,98574.75
2022-08-07T01:12:27.671Z,98591.78
2022-08-07T01:14:17.144Z,98604.97
2022-08-07T01:16:48.444Z,98613.13
2022-08-07T01:19:18.986Z,98623.22
2022-08-07T01:21:49.371Z,98624.47
2022-08-07T01:24:21.610Z,98641.34
2022-08-07T01:26:51.889Z,98641.88
2022-08-07T01:29:22.069Z,98651.38
2022-08-07T01:31:49.900Z,98654.09
2022-08-07T01:34:18.775Z,98650.72
2022-08-07T01:36:52.565Z,98652.78
2022-08-07T01:39:40.826Z,98646.66
2022-08-07T01:42:38.538Z,98652.91
2022-08-07T01:45:04.105Z,98667.72
2022-08-07T01:48:17.797Z,98664.06
2022-08-07T01:50:29.117Z,98670.84
2022-08-07T01:52:59.232Z,98679.88
2022-08-07T01:55:30.352Z,98685.09
2022-08-07T01:58:06.318Z,98691.81
2022-08-07T02:00:58.173Z,98684.13
2022-08-07T02:03:51.034Z,98686.50
2022-08-07T02:06:31.162Z,98676.69
2022-08-07T02:09:00.881Z,98682.25
2022-08-07T02:12:03.236Z,98684.19
2022-08-07T02:14:36.325Z,98684.38
2022-08-07T02:17:08.404Z,98684.84
2022-08-07T02:20:04.298Z,98689.16
2022-08-07T02:22:29.239Z,98685.97
2022-08-07T02:25:00.153Z,98696.84
2022-08-07T02:27:34.385Z,98701.16
2022-08-07T02:30:07.098Z,98702.16
2022-08-07T02:32:39.595Z,98702.03
2022-08-07T02:36:29.577Z,98700.91
2022-08-07T02:38:13.305Z,98703.22
2022-08-07T02:40:46.788Z,98700.03
2022-08-07T02:43:17.863Z,98695.72
2022-08-07T02:45:58.920Z,98703.22
2022-08-07T02:48:29.726Z,98694.75
2022-08-07T02:51:00.562Z,98686.91
2022-08-07T02:53:38.873Z,98702.28
2022-08-07T02:56:17.617Z,98695.97
2022-08-07T02:58:51.368Z,98689.81
2022-08-07T03:01:35.499Z,98688.38
2022-08-07T03:04:07.160Z,98671.25
2022-08-07T03:06:40.564Z,98664.03
2022-08-07T03:09:11.119Z,98662.44
2022-08-07T03:11:51.809Z,98662.22
2022-08-07T03:14:22.578Z,98664.75
2022-08-07T03:16:49.554Z,98661.13
2022-08-07T03:19:16.652Z,98661.94
2022-08-07T03:21:50.452Z,98659.81
2022-08-07T03:24:25.968Z,98645.06
2022-08-07T03:26:58.878Z,98655.28
2022-08-07T03:29:31.665Z,98660.03
2022-08-07T03:32:00.897Z,98665.25
2022-08-07T03:34:28.911Z,98655.16
2022-08-07T03:36:58.131Z,98642.13
2022-08-07T03:39:59.402Z,98642.56
2022-08-07T03:42:17.164Z,98626.72
2022-08-07T03:44:53.090Z,98628.09
2022-08-07T03:47:24.688Z,98637.19
2022-08-07T03:49:52.401Z,98644.22
2022-08-07T03:52:26.100Z,98641.47
2022-08-07T03:55:06.485Z,98634.22
2022-08-07T03:59:06.766Z,98646.00
2022-08-07T04:00:30.169Z,98639.22
2022-08-07T04:02:59.611Z,98619.97
2022-08-07T04:05:40.348Z,98628.59
2022-08-07T04:08:16.217Z,98610.06
2022-08-07T04:10:54.375Z,98596.56
2022-08-07T04:14:09.927Z,98587.72
2022-08-07T04:16:31.498Z,98599.53
2022-08-07T04:19:03.952Z,98585.66
2022-08-07T04:21:39.517Z,98584.97
2022-08-07T04:24:34.238Z,98584.06
2022-08-07T04:27:04.543Z,98581.22
2022-08-07T04:29:40.378Z,98572.47
2022-08-07T04:32:33.980Z,98563.38
2022-08-07T04:35:05.660Z,98558.81
2022-08-07T04:38:00.786Z,98563.34
2022-08-07T04:40:20.630Z,98556.06
2022-08-07T04:42:52.323Z,98549.22
2022-08-07T04:46:00.348Z,98542.41
2022-08-07T04:48:25.999Z,98550.34
2022-08-07T04:51:05.508Z,98548.97
2022-08-07T04:54:06.462Z,98548.22
2022-08-07T04:58:10.522Z,98551.41
2022-08-07T05:00:12.833Z,98557.31
2022-08-07T05:02:57.084Z,98570.50
2022-08-07T05:05:52.834Z,98569.13
2022-08-07T05:08:59.593Z,98580.28
2022-08-07T05:11:24.516Z,98586.41
2022-08-07T05:14:53.337Z,98592.66
2022-08-07T05:16:52.791Z,98602.78
2022-08-07T05:19:32.538Z,98601.75
2022-08-07T05:22:04.595Z,98607.28
2022-08-07T05:24:40.406Z,98614.78
2022-08-07T05:28:01.817Z,98615.94
2022-08-07T05:30:00.924Z,98615.88
2022-08-07T05:32:28.630Z,98633.34
2022-08-07T05:34:56.852Z,98667.16
2022-08-07T05:37:25.298Z,98706.03
2022-08-07T05:40:16.829Z,98747.81
2022-08-07T05:42:40.069Z,98794.34
2022-08-07T05:45:25.866Z,98830.16
2022-08-07T05:48:01.295Z,98859.91
2022-08-07T05:50:32.288Z,98889.28
2022-08-07T05:53:02.409Z,98908.59
2022-08-07T05:56:03.527Z,98922.03
2022-08-07T05:58:36.235Z,98922.16
2022-08-07T06:01:08.492Z,98945.66
2022-08-07T06:03:56.491Z,98947.94
2022-08-07T06:06:29.708Z,98952.28
2022-08-07T06:08:59.620Z,98959.88
2022-08-07T06:11:26.785Z,98973.22
2022-08-07T06:14:11.884Z,98969.22
2022-08-07T06:16:50.746Z,98970.72
2022-08-07T06:19:52.334Z,98977.06
2022-08-07T06:22:22.899Z,98982.06
2022-08-07T06:24:57.887Z,98982.06
2022-08-07T06:28:00.582Z,99004.38
2022-08-07T06:30:32.226Z,99049.34
2022-08-07T06:33:02.210Z,99094.00
2022-08-07T06:35:45.308Z,99116.66
2022-08-07T06:38:20.064Z,99118.66
2022-08-07T06:40:54.367Z,99134.66
2022-08-07T06:43:24.984Z,99157.19
2022-08-07T06:46:00.101Z,99177.22
2022-08-07T06:48:29.524Z,99189.88
2022-08-07T06:51:00.296Z,99200.47
2022-08-07T06:55:28.312Z,99206.53
2022-08-07T06:56:48.696Z,99217.34
2022-08-07T07:00:13.979Z,99238.97
2022-08-07T07:02:09.308Z,99250.81
2022-08-07T07:04:38.449Z,99246.59
2022-08-07T07:07:19.319Z,99256.53
2022-08-07T07:09:57.269Z,99263.56
2022-08-07T07:12:53.867Z,99270.41
2022-08-07T07:15:35.832Z,99277.94
2022-08-07T07:18:08.754Z,99280.00
2022-08-07T07:20:45.258Z,99283.84
2022-08-07T07:24:06.194Z,99296.84
2022-08-07T07:26:35.786Z,99299.13
2022-08-07T07:29:56.280Z,99293.97
2022-08-07T07:31:49.465Z,99294.09
2022-08-07T07:34:21.911Z,99303.19
2022-08-07T07:37:14.489Z,99313.91
2022-08-07T07:39:54.662Z,99335.13
2022-08-07T07:42:32.643Z,99357.28
2022-08-07T07:45:02.640Z,99365.25
2022-08-07T07:47:42.972Z,99366.63
2022-08-07T07:50:34.693Z,99370.28
2022-08-07T07:53:20.617Z,99377.34
2022-08-07T07:56:01.017Z,99385.22
2022-08-07T07:58:40.280Z,99394.69
2022-08-07T08:02:01.736Z,99405.84
2022-08-07T08:04:10.100Z,99402.88
2022-08-07T08:06:39.663Z,99403.09
2022-08-07T08:09:09.735Z,99394.38
2022-08-07T08:11:59.463Z,99392.66
2022-08-07T08:14:27.124Z,99397.53
2022-08-07T08:16:55.165Z,99401.53
2022-08-07T08:20:17.569Z,99410.78
2022-08-07T08:22:33.817Z,99422.66
2022-08-07T08:25:27.071Z,99432.94
2022-08-07T08:28:16.893Z,99438.41
2022-08-07T08:30:56.550Z,99433.78
2022-08-07T08:33:28.823Z,99435.13
2022-08-07T08:36:01.801Z,99438.78
2022-08-07T08:38:41.028Z,99445.41
2022-08-07T08:41:31.566Z,99449.75
2022-08-07T08:44:29.453Z,99457.28
2022-08-07T08:47:12.704Z,99447.63
2022-08-07T08:50:04.596Z,99448.44
2022-08-07T08:52:35.879Z,99459.97
2022-08-07T08:55:55.457Z,99464.09
2022-08-07T08:58:36.037Z,99457.19
2022-08-07T09:01:43.639Z,99448.00
2022-08-07T09:04:28.636Z,99441.41
2022-08-07T09:07:16.551Z,99438.66
2022-08-07T09:10:38.867Z,99433.97
2022-08-07T09:13:37.527Z,99435.66
2022-08-07T09:16:30.625Z,99444.69
2022-08-07T09:19:44.883Z,99458.50
2022-08-07T09:24:33.900Z,99437.94
2022-08-07T09:25:24.599Z,99451.22
2022-08-07T09:28:05.187Z,99443.59
2022-08-07T09:30:58.700Z,99441.44
2022-08-07T09:33:57.945Z,99438.63
2022-08-07T09:36:36.981Z,99435.63
2022-08-07T09:39:55.249Z,99430.72
2022-08-07T09:42:17.148Z,99439.13
2022-08-07T09:47:24.756Z,99450.91
2022-08-07T09:48:50.144Z,99447.94
2022-08-07T09:52:10.080Z,99447.75
2022-08-07T09:54:47.529Z,99446.25
2022-08-07T09:57:49.849Z,99441.88
2022-08-07T10:00:24.343Z,99442.63
2022-08-07T10:04:06.763Z,99457.66
2022-08-07T10:06:19.636Z,99444.28
2022-08-07T10:09:15.556Z,99437.66
2022-08-07T10:12:03.425Z,99435.59
2022-08-07T10:15:04.967Z,99435.81
2022-08-07T10:18:03.503Z,99432.94
2022-08-07T10:20:39.764Z,99435.31
2022-08-07T10:24:05.346Z,99434.09
2022-08-07T10:26:34.312Z,99439.28
2022-08-07T10:29:25.991Z,99443.34
2022-08-07T10:32:37.135Z,99452.03
2022-08-07T10:35:27.276Z,99461.97
2022-08-07T10:38:42.224Z,99465.75
2022-08-07T10:41:47.355Z,99460.00
2022-08-07T10:44:38.625Z,99459.56
2022-08-07T10:47:14.199Z,99470.69
2022-08-07T10:49:50.748Z,99475.78
2022-08-07T10:52:48.612Z,99476.63
2022-08-07T10:55:36.933Z,99467.81
2022-08-07T10:58:33.298Z,99455.34
2022-08-07T11:01:23.939Z,99448.84
2022-08-07T11:04:16.668Z,99448.13
2022-08-07T11:07:14.834Z,99446.81
2022-08-07T11:10:10.332Z,99450.78
2022-08-07T11:12:49.170Z,99443.94
2022-08-07T11:15:31.439Z,99441.88
2022-08-07T11:18:33.276Z,99438.03
2022-08-07T11:21:17.997Z,99445.50
2022-08-07T11:24:02.081Z,99460.81
2022-08-07T11:26:48.282Z,99455.31
2022-08-07T11:29:40.764Z,99449.94
2022-08-07T11:32:40.539Z,99444.50
2022-08-07T11:35:16.605Z,99450.09
2022-08-07T11:38:17.526Z,99456.47
2022-08-07T11:41:06.293Z,99452.56
2022-08-07T11:44:10.870Z,99460.47
2022-08-07T11:46:48.696Z,99461.78
2022-08-07T11:50:31.201Z,99457.13
2022-08-07T11:53:25.499Z,99463.59
2022-08-07T11:56:09.274Z,99456.75
2022-08-07T12:00:08.338Z,99458.34
2022-08-07T12:02:31.099Z,99446.16
2022-08-07T12:05:41.350Z,99443.84
2022-08-07T12:08:25.772Z,99437.22
2022-08-07T12:11:21.413Z,99441.63
2022-08-07T12:14:19.928Z,99428.78
2022-08-07T12:16:53.920Z,99423.34
2022-08-07T12:20:05.370Z,99424.72
2022-08-07T12:22:47.288Z,99426.75
2022-08-07T12:26:06.139Z,99435.66
2022-08-07T12:28:58.759Z,99437.88
2022-08-07T12:32:01.782Z,99429.38
2022-08-07T12:34:28.669Z,99422.44
2022-08-07T12:36:58.783Z,99436.59
2022-08-07T12:39:42.053Z,99429.56
2022-08-07T12:42:13.287Z,99418.75
2022-08-07T12:44:45.215Z,99420.81
2022-08-07T12:47:30.526Z,99418.66
2022-08-07T12:50:38.527Z,99429.50
2022-08-07T12:53:24.786Z,99418.78
2022-08-07T12:56:27.788Z,99411.88
2022-08-07T12:58:57.190Z,99406.06
2022-08-07T13:01:28.038Z,99407.16
2022-08-07T13:04:31.651Z,99412.94
2022-08-07T13:08:13.609Z,99410.34
2022-08-07T13:10:38.192Z,99411.66
2022-08-07T13:13:48.171Z,99421.88
2022-08-07T13:16:31.480Z,99410.66
2022-08-07T13:19:35.227Z,99403.94
2022-08-07T13:22:30.957Z,99410.72
2022-08-07T13:25:06.859Z,99406.69
2022-08-07T13:28:13.951Z,99419.41
2022-08-07T13:30:40.480Z,99422.41
2022-08-07T13:34:33.919Z,99428.38
2022-08-07T13:36:26.183Z,99425.28
2022-08-07T13:39:12.662Z,99437.56
2022-08-07T13:41:47.425Z,99429.72
2022-08-07T13:44:25.791Z,99422.31
2022-08-07T13:46:59.498Z,99410.97
2022-08-07T13:50:32.958Z,99411.47
2022-08-07T13:52:33.592Z,99415.25
2022-08-07T13:55:19.375Z,99427.59
2022-08-07T13:58:27.610Z,99427.31
2022-08-07T14:01:08.852Z,99436.41
2022-08-07T14:04:04.906Z,99437.56
2022-08-07T14:06:36.998Z,99453.94
2022-08-07T14:09:06.501Z,99447.25
2022-08-07T14:11:53.969Z,99437.09
2022-08-07T14:14:53.039Z,99433.34
2022-08-07T14:18:12.587Z,99431.91
2022-08-07T14:20:42.841Z,99436.50
2022-08-07T14:23:31.552Z,99445.91
2022-08-07T14:26:23.585Z,99440.38
2022-08-07T14:29:06.048Z,99440.72
2022-08-07T14:31:43.413Z,99430.78
2022-08-07T14:34:30.001Z,99426.69
2022-08-07T14:36:58.579Z,99424.91
2022-08-07T14:40:15.935Z,99430.41
2022-08-07T14:42:25.349Z,99425.69
2022-08-07T14:44:59.901Z,99425.69
2022-08-07T14:47:48.097Z,99422.66
2022-08-07T14:50:19.787Z,99428.03
2022-08-07T14:52:47.969Z,99428.34
2022-08-07T14:55:19.172Z,99428.84
2022-08-07T14:57:58.219Z,99421.13
2022-08-07T15:00:43.386Z,99427.72
2022-08-07T15:03:19.068Z,99422.19
2022-08-07T15:05:54.720Z,99425.78
2022-08-07T15:08:33.859Z,99423.97
2022-08-07T15:11:10.002Z,99424.03
2022-08-07T15:13:53.382Z,99422.34
2022-08-07T15:16:33.515Z,99421.91
2022-08-07T15:19:05.687Z,99413.94
2022-08-07T15:21:58.474Z,99404.84
2022-08-07T15:25:16.169Z,99390.19
2022-08-07T15:27:23.101Z,99370.06
2022-08-07T15:30:10.334Z,99368.41
2022-08-07T15:33:01.384Z,99342.25
2022-08-07T15:35:40.654Z,99317.38
2022-08-07T15:38:32.960Z,99310.44
2022-08-07T15:44:11.498Z,99351.31
2022-08-07T15:46:51.606Z,99356.16
2022-08-07T15:50:05.177Z,99352.19
2022-08-07T15:52:17.100Z,99357.72
2022-08-07T15:54:51.532Z,99368.09
2022-08-07T15:57:28.322Z,99372.88
2022-08-07T16:00:08.677Z,99372.09
2022-08-07T16:02:57.517Z,99368.91
2022-08-07T16:05:31.256Z,99372.81
2022-08-07T16:08:32.160Z,99369.22
2022-08-07T16:11:02.538Z,99358.50
2022-08-07T16:14:03.089Z,99360.06
2022-08-07T16:16:51.131Z,99352.09
2022-08-07T16:19:41.862Z,99344.97
2022-08-07T16:22:54.576Z,99325.59
2022-08-07T16:26:00.396Z,99321.28
2022-08-07T16:30:07.833Z,99325.25
2022-08-07T16:32:01.475Z,99336.53
2022-08-07T16:34:45.308Z,99355.59
2022-08-07T16:38:04.709Z,99366.00
2022-08-07T16:41:41.531Z,99386.97
2022-08-07T16:45:14.250Z,99394.50
2022-08-07T16:48:09.669Z,99405.59
2022-08-07T16:51:13.567Z,99411.53
2022-08-07T16:54:09.872Z,99420.28
2022-08-07T16:57:01.887Z,99422.66
2022-08-07T16:59:51.235Z,99423.78
2022-08-07T17:02:53.433Z,99431.66
2022-08-07T17:06:19.636Z,99424.47
2022-08-07T17:09:04.305Z,99417.97
2022-08-07T17:12:04.115Z,99421.03
2022-08-07T17:15:05.460Z,99425.78
2022-08-07T17:17:46.421Z,99418.75
2022-08-07T17:20:54.757Z,99431.81
2022-08-07T17:23:32.074Z,99425.00
2022-08-07T17:26:22.641Z,99427.28
2022-08-07T17:30:13.216Z,99432.34
2022-08-07T17:32:30.843Z,99420.22
2022-08-07T17:35:50.984Z,99407.91
2022-08-07T17:38:33.376Z,99385.75
2022-08-07T17:42:04.705Z,99388.72
2022-08-07T17:44:45.524Z,99379.06
2022-08-07T17:47:38.574Z,99373.25
2022-08-07T17:50:18.972Z,99358.03
2022-08-07T17:53:01.142Z,99346.75
2022-08-07T17:55:55.844Z,99342.38
2022-08-07T17:59:11.230Z,99328.22
2022-08-07T18:02:01.498Z,99321.66
2022-08-07T18:04:31.068Z,99319.03
2022-08-07T18:07:20.638Z,99315.06
2022-08-07T18:10:06.144Z,99317.66
2022-08-07T18:12:40.640Z,99308.53
2022-08-07T18:15:22.954Z,99296.69
2022-08-07T18:18:45.695Z,99296.00
2022-08-07T18:21:37.172Z,99273.38
2022-08-07T18:24:07.398Z,99258.78
2022-08-07T18:26:42.843Z,99247.56
2022-08-07T18:30:04.308Z,99244.28
2022-08-07T18:33:16.025Z,99243.16
2022-08-07T18:35:57.646Z,99236.16
2022-08-07T18:38:58.809Z,99224.25
2022-08-07T18:41:44.718Z,99207.91
2022-08-07T18:44:18.360Z,99206.91
2022-08-07T18:47:07.095Z,99195.47
2022-08-07T18:50:35.236Z,99194.91
2022-08-07T18:52:53.171Z,99196.91
2022-08-07T18:55:55.809Z,99186.44
2022-08-07T18:58:51.222Z,99179.00
2022-08-07T19:02:18.342Z,99173.06
2022-08-07T19:04:37.208Z,99183.56
2022-08-07T19:07:19.841Z,99184.66
2022-08-07T19:10:21.374Z,99170.03
2022-08-07T19:13:11.778Z,99162.97
2022-08-07T19:16:05.805Z,99152.56
2022-08-07T19:18:54.420Z,99144.63
2022-08-07T19:21:51.029Z,99134.34
2022-08-07T19:24:38.211Z,99138.53
2022-08-07T19:28:29.161Z,99145.25
2022-08-07T19:31:05.487Z,99149.22
2022-08-07T19:33:10.070Z,99107.88
2022-08-07T19:35:42.452Z,99068.81
2022-08-07T19:38:17.363Z,99074.41
2022-08-07T19:40:49.934Z,99054.81
2022-08-07T19:43:45.703Z,99057.09
2022-08-07T19:46:26.313Z,99070.81
2022-08-07T19:49:04.580Z,99060.59
2022-08-07T19:51:52.323Z,99035.78
2022-08-07T19:54:32.174Z,99036.66
2022-08-07T19:58:01.162Z,99028.69
2022-08-07T20:00:08.787Z,99011.75
2022-08-07T20:02:52.258Z,99009.63
2022-08-07T20:05:25.381Z,99017.56
2022-08-07T20:07:58.399Z,98997.03
2022-08-07T20:10:54.227Z,98973.41
2022-08-07T20:13:55.169Z,98984.34
2022-08-07T20:16:35.021Z,98993.75
2022-08-07T20:19:06.117Z,98971.59
2022-08-07T20:21:46.842Z,98956.22
2022-08-07T20:24:21.229Z,98961.59
2022-08-07T20:26:52.379Z,98964.00
2022-08-07T20:29:58.434Z,98973.56
2022-08-07T20:32:40.213Z,98970.78
2022-08-07T20:35:26.119Z,98962.13
2022-08-07T20:37:59.805Z,98964.41
2022-08-07T20:40:34.565Z,98963.00
2022-08-07T20:43:09.516Z,98944.03
2022-08-07T20:46:29.059Z,98931.03
2022-08-07T20:48:30.801Z,98926.72
2022-08-07T20:51:04.078Z,98922.06
2022-08-07T20:54:01.916Z,98909.66
2022-08-07T20:56:27.295Z,98891.09
2022-08-07T20:58:58.534Z,98880.78
2022-08-07T21:01:26.314Z,98864.34
2022-08-07T21:04:21.805Z,98862.34
2022-08-07T21:06:53.727Z,98864.03
2022-08-07T21:09:28.709Z,98865.53
2022-08-07T21:12:05.715Z,98875.72
2022-08-07T21:14:48.428Z,98867.13
2022-08-07T21:18:17.118Z,98862.91
2022-08-07T21:20:26.629Z,98863.44
2022-08-07T21:22:58.574Z,98864.91
2022-08-07T21:25:56.958Z,98860.06
2022-08-07T21:28:48.911Z,98868.75
2022-08-07T21:31:49.171Z,98881.31
2022-08-07T21:34:31.919Z,98889.75
2022-08-07T21:37:13.274Z,98879.75
2022-08-07T21:39:51.724Z,98877.03
2022-08-07T21:42:46.132Z,98887.50
2022-08-07T21:46:09.131Z,98875.78
2022-08-07T21:48:42.428Z,98862.91
2022-08-07T21:51:25.918Z,98863.72
2022-08-07T21:54:01.899Z,98865.66
2022-08-07T21:56:49.109Z,98877.28
2022-08-07T21:59:30.492Z,98893.19
2022-08-07T22:02:19.213Z,98907.41
2022-08-07T22:04:53.923Z,98908.09
2022-08-07T22:07:57.711Z,98926.34
2022-08-07T22:10:22.277Z,98942.47
2022-08-07T22:12:55.447Z,98973.66
2022-08-07T22:16:41.850Z,98991.38
2022-08-07T22:18:24.991Z,99002.34
2022-08-07T22:20:59.744Z,99017.00
2022-08-07T22:24:04.021Z,99035.88
2022-08-07T22:26:50.217Z,99033.16
2022-08-07T22:29:57.587Z,99036.50
2022-08-07T22:32:36.927Z,99030.81
2022-08-07T22:35:05.676Z,99013.97
2022-08-07T22:38:08.000Z,99013.03
2022-08-07T22:40:48.884Z,99014.88
2022-08-07T22:43:43.619Z,99034.66
2022-08-07T22:47:02.808Z,99025.34
2022-08-07T22:49:42.797Z,99020.34
2022-08-07T22:52:43.396Z,99007.59
2022-08-07T22:55:30.221Z,99006.91
2022-08-07T22:58:34.148Z,98998.06
2022-08-07T23:01:15.572Z,98988.94
2022-08-07T23:04:30.012Z,98997.81
2022-08-07T23:07:33.610Z,98996.22
2022-08-07T23:10:05.911Z,99008.69
2022-08-07T23:12:59.887Z,99004.81
2022-08-07T23:16:06.619Z,99013.53
2022-08-07T23:19:47.894Z,99014.78
2022-08-07T23:22:29.660Z,99001.88
2022-08-07T23:25:28.475Z,99008.13
2022-08-07T23:28:22.072Z,99010.81
2022-08-07T23:32:48.672Z,99009.31
2022-08-07T23:34:39.401Z,99025.75
2022-08-07T23:37:32.787Z,99033.25
2022-08-07T23:40:30.877Z,99024.03
2022-08-07T23:43:22.729Z,99018.09
2022-08-07T23:46:28.832Z,99007.88
2022-08-07T23:49:50.023Z,99009.66
2022-08-07T23:53:00.214Z,99008.63
2022-08-07T23:55:53.602Z,99006.09
2022-08-07T23:59:10.324Z,99005.16
